createdAt,value
2019-05-22T00:02:22.318Z,100.00
2019-05-22T00:05:13.866Z,100.00
2019-05-22T00:07:49.602Z,100.00
2019-05-22T00:10:26.754Z,100.00
2019-05-22T00:13:00.298Z,100.00
2019-05-22T00:15:34.392Z,100.00
2019-05-22T00:18:10.597Z,100.00
2019-05-22T00:20:45.474Z,100.00
2019-05-22T00:23:20.295Z,100.00
2019-05-22T00:25:54.770Z,100.00
2019-05-22T00:28:27.313Z,100.00
2019-05-22T00:31:01.779Z,100.00
2019-05-22T00:33:36.417Z,100.00
2019-05-22T00:36:11.340Z,100.00
2019-05-22T00:38:46.694Z,100.00
2019-05-22T00:41:22.665Z,100.00
2019-05-22T00:43:58.706Z,100.00
2019-05-22T00:46:31.287Z,100.00
2019-05-22T00:49:05.517Z,100.00
2019-05-22T00:51:44.529Z,100.00
2019-05-22T00:54:25.300Z,100.00
2019-05-22T00:56:59.341Z,100.00
2019-05-22T00:59:37.070Z,100.00
2019-05-22T01:02:13.772Z,100.00
2019-05-22T01:04:48.721Z,100.00
2019-05-22T01:07:22.848Z,100.00
2019-05-22T01:09:59.043Z,100.00
2019-05-22T01:12:33.479Z,100.00
2019-05-22T01:15:12.279Z,100.00
2019-05-22T01:17:45.479Z,100.00
2019-05-22T01:20:19.786Z,100.00
2019-05-22T01:22:54.286Z,100.00
2019-05-22T01:25:29.391Z,100.00
2019-05-22T01:30:00.816Z,100.00
2019-05-22T01:32:40.499Z,100.00
2019-05-22T01:35:14.287Z,100.00
2019-05-22T01:37:48.734Z,100.00
2019-05-22T01:40:30.298Z,100.00
2019-05-22T01:43:09.315Z,100.00
2019-05-22T01:45:44.330Z,100.00
2019-05-22T01:48:27.766Z,100.00
2019-05-22T01:51:01.932Z,100.00
2019-05-22T01:53:39.363Z,100.00
2019-05-22T01:56:13.901Z,100.00
2019-05-22T01:58:47.621Z,100.00
2019-05-22T02:01:22.443Z,100.00
2019-05-22T02:03:56.616Z,100.00
2019-05-22T02:06:30.754Z,100.00
2019-05-22T02:09:18.562Z,100.00
2019-05-22T02:11:57.323Z,100.00
2019-05-22T02:14:30.823Z,100.00
2019-05-22T02:17:06.294Z,100.00
2019-05-22T02:19:39.214Z,100.00
2019-05-22T02:22:13.578Z,100.00
2019-05-22T02:24:49.311Z,100.00
2019-05-22T02:27:22.442Z,100.00
2019-05-22T02:29:55.765Z,100.00
2019-05-22T02:32:29.659Z,100.00
2019-05-22T02:35:02.143Z,100.00
2019-05-22T02:37:36.586Z,100.00
2019-05-22T02:40:24.803Z,100.00
2019-05-22T02:42:58.283Z,100.00
2019-05-22T02:45:34.411Z,100.00
2019-05-22T02:48:09.741Z,100.00
2019-05-22T02:50:42.608Z,100.00
2019-05-22T02:53:17.291Z,100.00
2019-05-22T02:55:51.281Z,100.00
2019-05-22T02:58:24.648Z,100.00
2019-05-22T03:01:06.837Z,100.00
2019-05-22T03:03:39.640Z,100.00
2019-05-22T03:06:17.499Z,100.00
2019-05-22T03:09:12.137Z,100.00
2019-05-22T03:12:02.653Z,100.00
2019-05-22T03:14:36.378Z,100.00
2019-05-22T03:17:15.570Z,100.00
2019-05-22T03:19:48.038Z,100.00
2019-05-22T03:23:08.464Z,100.00
2019-05-22T03:25:44.375Z,100.00
2019-05-22T03:28:17.609Z,100.00
2019-05-22T03:30:52.282Z,100.00
2019-05-22T03:33:25.436Z,100.00
2019-05-22T03:36:15.984Z,100.00
2019-05-22T03:38:49.590Z,100.00
2019-05-22T03:41:24.332Z,100.00
2019-05-22T03:43:58.844Z,100.00
2019-05-22T03:46:37.569Z,100.00
2019-05-22T03:49:29.307Z,100.00
2019-05-22T03:51:52.807Z,100.00
2019-05-22T03:54:26.821Z,100.00
2019-05-22T03:57:00.309Z,100.00
2019-05-22T03:59:32.232Z,100.00
2019-05-22T04:02:06.422Z,100.00
2019-05-22T04:04:42.650Z,100.00
2019-05-22T04:07:17.342Z,100.00
2019-05-22T04:09:52.327Z,100.00
2019-05-22T04:12:27.237Z,100.00
2019-05-22T04:15:00.624Z,100.00
2019-05-22T04:17:36.423Z,100.00
2019-05-22T04:20:09.411Z,100.00
2019-05-22T04:22:44.277Z,100.00
2019-05-22T04:25:17.589Z,100.00
2019-05-22T04:27:51.563Z,100.00
2019-05-22T04:30:26.039Z,100.00
2019-05-22T04:33:14.767Z,100.00
2019-05-22T04:35:46.355Z,100.00
2019-05-22T04:38:19.929Z,100.00
2019-05-22T04:43:00.342Z,100.00
2019-05-22T04:45:32.813Z,100.00
2019-05-22T04:48:06.774Z,100.00
2019-05-22T04:50:40.328Z,100.00
2019-05-22T04:53:13.384Z,100.00
2019-05-22T04:55:46.299Z,100.00
2019-05-22T04:58:21.737Z,100.00
2019-05-22T05:03:44.947Z,100.00
2019-05-22T05:06:19.002Z,100.00
2019-05-22T05:08:52.632Z,100.00
2019-05-22T05:11:26.746Z,100.00
2019-05-22T05:13:59.321Z,100.00
2019-05-22T05:16:31.722Z,100.00
2019-05-22T05:19:05.741Z,100.00
2019-05-22T05:21:40.303Z,100.00
2019-05-22T05:24:13.661Z,100.00
2019-05-22T05:26:46.741Z,100.00
2019-05-22T05:29:33.659Z,100.00
2019-05-22T05:32:08.050Z,100.00
2019-05-22T05:34:55.524Z,100.00
2019-05-22T05:37:28.802Z,100.00
2019-05-22T05:40:10.287Z,100.00
2019-05-22T05:42:43.453Z,100.00
2019-05-22T05:45:16.508Z,100.00
2019-05-22T05:47:49.289Z,100.00
2019-05-22T05:50:37.847Z,100.00
2019-05-22T05:54:23.790Z,100.00
2019-05-22T05:57:19.336Z,100.00
2019-05-22T05:59:52.051Z,100.00
2019-05-22T06:02:25.661Z,100.00
2019-05-22T06:04:58.281Z,100.00
2019-05-22T06:07:30.794Z,100.00
2019-05-22T06:10:38.520Z,100.00
2019-05-22T06:13:13.297Z,100.00
2019-05-22T06:15:57.350Z,99.60
2019-05-22T06:18:38.891Z,99.60
2019-05-22T06:21:12.288Z,100.00
2019-05-22T06:24:06.676Z,100.00
2019-05-22T06:26:51.697Z,100.00
2019-05-22T06:29:28.265Z,100.00
2019-05-22T06:32:13.287Z,100.00
2019-05-22T06:36:55.300Z,96.49
2019-05-22T06:39:28.018Z,97.28
2019-05-22T06:42:00.579Z,97.28
2019-05-22T06:44:37.876Z,96.85
2019-05-22T06:47:15.289Z,96.62
2019-05-22T06:49:49.527Z,95.88
2019-05-22T06:52:22.264Z,95.88
2019-05-22T06:54:55.594Z,97.54
2019-05-22T06:57:29.834Z,98.91
2019-05-22T07:00:14.335Z,98.33
2019-05-22T07:02:45.109Z,93.99
2019-05-22T07:05:20.660Z,93.08
2019-05-22T07:07:53.300Z,95.00
2019-05-22T07:10:26.349Z,97.07
2019-05-22T07:13:01.291Z,95.09
2019-05-22T07:15:37.738Z,91.93
2019-05-22T07:18:13.404Z,91.93
2019-05-22T07:20:49.588Z,95.54
2019-05-22T07:23:25.018Z,92.67
2019-05-22T07:25:58.841Z,95.76
2019-05-22T07:28:31.409Z,94.29
2019-05-22T07:31:07.389Z,92.22
2019-05-22T07:33:39.842Z,96.46
2019-05-22T07:36:16.627Z,96.46
2019-05-22T07:38:47.845Z,94.02
2019-05-22T07:42:08.291Z,92.50
2019-05-22T07:44:41.293Z,91.73
2019-05-22T07:47:17.406Z,91.73
2019-05-22T07:49:49.778Z,92.33
2019-05-22T07:52:23.318Z,92.33
2019-05-22T07:54:56.288Z,85.80
2019-05-22T07:57:30.259Z,86.68
2019-05-22T08:00:03.326Z,86.16
2019-05-22T08:02:50.894Z,85.26
2019-05-22T08:05:25.892Z,88.92
2019-05-22T08:07:58.286Z,89.21
2019-05-22T08:10:30.731Z,80.74
2019-05-22T08:13:03.615Z,80.94
2019-05-22T08:15:36.447Z,78.67
2019-05-22T08:18:09.838Z,81.37
2019-05-22T08:20:42.746Z,82.24
2019-05-22T08:23:16.118Z,81.54
2019-05-22T08:25:49.286Z,81.09
2019-05-22T08:28:22.696Z,79.49
2019-05-22T08:30:56.506Z,79.49
2019-05-22T08:33:28.244Z,78.84
2019-05-22T08:36:01.533Z,81.37
2019-05-22T08:38:35.253Z,82.63
2019-05-22T08:41:11.288Z,81.81
2019-05-22T08:44:15.450Z,74.47
2019-05-22T08:46:21.730Z,74.72
2019-05-22T08:48:55.755Z,73.32
2019-05-22T08:51:28.252Z,75.45
2019-05-22T08:54:05.834Z,71.43
2019-05-22T08:56:44.867Z,69.34
2019-05-22T08:59:19.906Z,69.34
2019-05-22T09:01:59.283Z,71.71
2019-05-22T09:04:31.761Z,68.27
2019-05-22T09:07:04.577Z,68.27
2019-05-22T09:09:37.276Z,68.24
2019-05-22T09:12:11.603Z,70.16
2019-05-22T09:14:45.808Z,70.16
2019-05-22T09:17:19.688Z,67.79
2019-05-22T09:19:53.282Z,67.36
2019-05-22T09:22:39.502Z,64.32
2019-05-22T09:25:01.386Z,64.32
2019-05-22T09:27:33.979Z,66.38
2019-05-22T09:30:11.299Z,64.74
2019-05-22T09:32:47.561Z,63.51
2019-05-22T09:35:20.248Z,66.93
2019-05-22T09:37:52.519Z,66.93
2019-05-22T09:40:25.416Z,63.06
2019-05-22T09:42:58.352Z,65.46
2019-05-22T09:45:32.115Z,65.46
2019-05-22T09:48:08.297Z,70.56
2019-05-22T09:50:40.886Z,67.76
2019-05-22T09:53:13.851Z,67.76
2019-05-22T09:55:47.755Z,66.26
2019-05-22T09:58:23.774Z,67.10
2019-05-22T10:00:56.755Z,66.54
2019-05-22T10:03:29.634Z,67.93
2019-05-22T10:06:03.102Z,66.27
2019-05-22T10:08:36.610Z,66.61
2019-05-22T10:11:09.312Z,68.68
2019-05-22T10:15:57.263Z,67.35
2019-05-22T10:18:29.779Z,66.52
2019-05-22T10:21:02.358Z,66.52
2019-05-22T10:23:35.280Z,64.18
2019-05-22T10:26:08.794Z,64.49
2019-05-22T10:28:43.727Z,64.49
2019-05-22T10:31:17.916Z,66.84
2019-05-22T10:33:52.090Z,62.85
2019-05-22T10:36:24.812Z,65.30
2019-05-22T10:38:58.721Z,65.30
2019-05-22T10:41:31.426Z,62.50
2019-05-22T10:44:05.606Z,61.79
2019-05-22T10:46:38.316Z,63.60
2019-05-22T10:49:10.768Z,65.47
2019-05-22T10:51:43.295Z,65.47
2019-05-22T10:54:15.252Z,63.67
2019-05-22T10:56:52.142Z,62.86
2019-05-22T10:59:24.288Z,59.52
2019-05-22T11:01:58.332Z,61.45
2019-05-22T11:04:32.307Z,59.79
2019-05-22T11:07:07.410Z,61.31
2019-05-22T11:09:40.701Z,61.31
2019-05-22T11:12:14.595Z,57.63
2019-05-22T11:14:49.485Z,58.72
2019-05-22T11:17:21.842Z,57.53
2019-05-22T11:19:55.303Z,56.37
2019-05-22T11:22:28.314Z,56.14
2019-05-22T11:25:01.458Z,56.16
2019-05-22T11:27:34.309Z,56.16
2019-05-22T11:30:11.847Z,54.94
2019-05-22T11:32:46.257Z,54.94
2019-05-22T11:35:20.799Z,55.18
2019-05-22T11:37:53.334Z,57.00
2019-05-22T11:40:26.566Z,57.89
2019-05-22T11:42:59.673Z,57.89
2019-05-22T11:45:34.685Z,57.33
2019-05-22T11:48:07.686Z,56.48
2019-05-22T11:50:44.334Z,58.08
2019-05-22T11:54:07.969Z,55.87
2019-05-22T11:56:32.279Z,55.87
2019-05-22T11:59:06.419Z,52.83
2019-05-22T12:01:40.016Z,52.83
2019-05-22T12:04:13.404Z,51.35
2019-05-22T12:06:47.443Z,45.52
2019-05-22T12:09:19.768Z,42.53
2019-05-22T12:11:52.880Z,39.11
2019-05-22T12:14:25.339Z,38.31
2019-05-22T12:16:58.266Z,39.37
2019-05-22T12:19:30.866Z,38.53
2019-05-22T12:22:03.309Z,38.61
2019-05-22T12:24:37.217Z,38.19
2019-05-22T12:27:11.317Z,32.29
2019-05-22T12:29:46.393Z,31.01
2019-05-22T12:32:19.362Z,26.88
2019-05-22T12:34:52.286Z,29.97
2019-05-22T12:37:25.288Z,33.17
2019-05-22T12:39:58.279Z,35.85
2019-05-22T12:42:31.324Z,36.85
2019-05-22T12:45:04.554Z,34.26
2019-05-22T12:47:37.396Z,34.26
2019-05-22T12:50:11.993Z,34.75
2019-05-22T12:52:49.620Z,34.84
2019-05-22T12:55:22.645Z,36.02
2019-05-22T12:57:55.506Z,37.10
2019-05-22T13:00:29.656Z,36.81
2019-05-22T13:03:05.310Z,36.08
2019-05-22T13:05:43.046Z,30.17
2019-05-22T13:08:19.364Z,30.17
2019-05-22T13:10:53.298Z,34.36
2019-05-22T13:13:25.483Z,34.36
2019-05-22T13:15:59.719Z,34.23
2019-05-22T13:18:31.919Z,31.01
2019-05-22T13:21:05.688Z,28.67
2019-05-22T13:23:39.588Z,26.41
2019-05-22T13:26:12.474Z,29.69
2019-05-22T13:28:50.477Z,27.91
2019-05-22T13:31:24.040Z,28.75
2019-05-22T13:33:58.034Z,31.00
2019-05-22T13:36:31.295Z,33.44
2019-05-22T13:39:06.078Z,31.53
2019-05-22T13:41:39.261Z,31.53
2019-05-22T13:44:13.616Z,25.19
2019-05-22T13:46:49.614Z,25.19
2019-05-22T13:49:23.301Z,27.79
2019-05-22T13:51:55.652Z,27.56
2019-05-22T13:54:28.403Z,27.56
2019-05-22T13:57:01.325Z,24.68
2019-05-22T13:59:34.338Z,26.48
2019-05-22T14:02:07.441Z,26.60
2019-05-22T14:04:40.713Z,26.60
2019-05-22T14:07:14.346Z,27.62
2019-05-22T14:09:47.799Z,23.26
2019-05-22T14:12:20.600Z,21.25
2019-05-22T14:14:56.436Z,20.62
2019-05-22T14:17:29.299Z,20.66
2019-05-22T14:20:02.283Z,24.18
2019-05-22T14:22:37.650Z,23.46
2019-05-22T14:25:10.852Z,20.81
2019-05-22T14:27:43.475Z,19.50
2019-05-22T14:30:20.296Z,17.54
2019-05-22T14:32:52.625Z,23.05
2019-05-22T14:35:32.911Z,23.05
2019-05-22T14:38:03.028Z,22.61
2019-05-22T14:40:36.376Z,21.00
2019-05-22T14:43:09.456Z,19.53
2019-05-22T14:45:43.308Z,19.30
2019-05-22T14:48:16.441Z,18.17
2019-05-22T14:50:50.022Z,18.17
2019-05-22T14:53:24.289Z,17.38
2019-05-22T14:55:57.017Z,19.42
2019-05-22T14:58:30.290Z,19.42
2019-05-22T15:01:03.346Z,18.26
2019-05-22T15:03:39.285Z,18.26
2019-05-22T15:06:12.337Z,23.03
2019-05-22T15:08:44.698Z,23.03
2019-05-22T15:11:18.707Z,22.26
2019-05-22T15:13:51.339Z,21.33
2019-05-22T15:16:23.254Z,21.49
2019-05-22T15:18:56.192Z,21.49
2019-05-22T15:21:28.317Z,25.63
2019-05-22T15:24:01.331Z,26.25
2019-05-22T15:26:33.900Z,26.88
2019-05-22T15:29:07.355Z,26.54
2019-05-22T15:31:39.677Z,25.86
2019-05-22T15:34:13.750Z,25.86
2019-05-22T15:36:47.447Z,23.22
2019-05-22T15:39:25.853Z,20.38
2019-05-22T15:41:58.310Z,21.35
2019-05-22T15:44:31.100Z,21.69
2019-05-22T15:47:03.984Z,21.69
2019-05-22T15:49:38.965Z,19.79
2019-05-22T15:52:16.661Z,20.55
2019-05-22T15:54:50.911Z,20.48
2019-05-22T15:57:24.289Z,18.75
2019-05-22T15:59:58.343Z,24.08
2019-05-22T16:02:34.291Z,24.08
2019-05-22T16:05:09.754Z,26.53
2019-05-22T16:07:43.310Z,26.53
2019-05-22T16:10:19.582Z,31.08
2019-05-22T16:12:54.677Z,31.08
2019-05-22T16:15:30.664Z,33.24
2019-05-22T16:18:11.804Z,33.32
2019-05-22T16:20:42.844Z,34.56
2019-05-22T16:23:15.753Z,34.56
2019-05-22T16:25:49.470Z,35.38
2019-05-22T16:28:25.318Z,35.15
2019-05-22T16:31:01.301Z,36.03
2019-05-22T16:33:35.462Z,37.09
2019-05-22T16:36:10.296Z,37.09
2019-05-22T16:38:45.798Z,38.29
2019-05-22T16:41:21.311Z,38.29
2019-05-22T16:43:54.324Z,39.06
2019-05-22T16:46:28.308Z,39.06
2019-05-22T16:49:00.924Z,40.46
2019-05-22T16:51:33.659Z,41.70
2019-05-22T16:54:11.688Z,41.34
2019-05-22T16:56:44.302Z,40.10
2019-05-22T16:59:21.304Z,41.77
2019-05-22T17:01:59.445Z,41.77
2019-05-22T17:04:29.707Z,41.67
2019-05-22T17:07:04.744Z,42.12
2019-05-22T17:09:43.551Z,41.49
2019-05-22T17:12:19.682Z,41.49
2019-05-22T17:14:53.285Z,41.27
2019-05-22T17:17:26.320Z,41.70
2019-05-22T17:19:59.336Z,44.67
2019-05-22T17:22:32.311Z,44.57
2019-05-22T17:25:06.303Z,44.30
2019-05-22T17:27:39.507Z,44.84
2019-05-22T17:30:20.460Z,44.84
2019-05-22T17:32:50.754Z,45.34
2019-05-22T17:35:24.801Z,45.34
2019-05-22T17:37:59.246Z,45.49
2019-05-22T17:40:32.866Z,45.22
2019-05-22T17:43:07.323Z,46.40
2019-05-22T17:45:42.307Z,47.25
2019-05-22T17:48:16.666Z,47.31
2019-05-22T17:50:50.308Z,47.31
2019-05-22T17:53:23.064Z,48.90
2019-05-22T17:55:55.999Z,48.90
2019-05-22T17:58:30.060Z,49.34
2019-05-22T18:01:19.909Z,48.75
2019-05-22T18:04:02.305Z,49.31
2019-05-22T18:06:35.169Z,50.21
2019-05-22T18:09:11.424Z,50.21
2019-05-22T18:11:44.315Z,50.69
2019-05-22T18:14:16.973Z,51.81
2019-05-22T18:16:49.544Z,51.81
2019-05-22T18:19:23.030Z,52.37
2019-05-22T18:21:57.421Z,52.73
2019-05-22T18:24:30.331Z,53.90
2019-05-22T18:27:02.530Z,54.57
2019-05-22T18:29:35.296Z,54.67
2019-05-22T18:32:09.076Z,56.87
2019-05-22T18:34:42.291Z,56.87
2019-05-22T18:37:14.749Z,57.47
2019-05-22T18:39:47.292Z,57.47
2019-05-22T18:42:20.288Z,60.06
2019-05-22T18:44:53.669Z,60.06
2019-05-22T18:47:27.529Z,59.05
2019-05-22T18:50:00.395Z,61.08
2019-05-22T18:52:40.881Z,63.71
2019-05-22T18:55:09.330Z,63.71
2019-05-22T18:57:42.310Z,63.80
2019-05-22T19:00:20.029Z,65.02
2019-05-22T19:02:52.994Z,65.02
2019-05-22T19:05:30.053Z,66.46
2019-05-22T19:08:06.162Z,66.64
2019-05-22T19:10:40.633Z,68.89
2019-05-22T19:13:16.550Z,68.89
2019-05-22T19:15:50.905Z,70.49
2019-05-22T19:18:23.321Z,70.49
2019-05-22T19:20:58.300Z,71.02
2019-05-22T19:23:30.754Z,73.42
2019-05-22T19:26:05.706Z,73.42
2019-05-22T19:28:44.022Z,72.57
2019-05-22T19:31:12.690Z,73.45
2019-05-22T19:33:46.113Z,74.03
2019-05-22T19:36:19.826Z,75.71
2019-05-22T19:41:31.288Z,75.68
2019-05-22T19:44:03.733Z,77.41
2019-05-22T19:46:36.315Z,77.41
2019-05-22T19:49:09.310Z,79.63
2019-05-22T19:51:44.529Z,79.43
2019-05-22T19:54:17.158Z,79.43
2019-05-22T19:56:51.308Z,79.94
2019-05-22T19:59:24.347Z,80.19
2019-05-22T20:01:56.818Z,80.71
2019-05-22T20:04:30.041Z,80.71
2019-05-22T20:07:04.509Z,82.05
2019-05-22T20:09:40.390Z,82.62
2019-05-22T20:12:14.518Z,83.06
2019-05-22T20:14:47.420Z,84.33
2019-05-22T20:17:20.783Z,85.09
2019-05-22T20:19:54.068Z,85.09
2019-05-22T20:22:27.641Z,84.45
2019-05-22T20:25:01.703Z,85.72
2019-05-22T20:27:35.750Z,85.89
2019-05-22T20:30:13.298Z,86.90
2019-05-22T20:32:45.861Z,87.17
2019-05-22T20:35:19.303Z,87.30
2019-05-22T20:37:52.329Z,88.77
2019-05-22T20:40:27.154Z,89.56
2019-05-22T20:43:00.731Z,89.56
2019-05-22T20:45:33.741Z,90.07
2019-05-22T20:48:15.310Z,90.52
2019-05-22T20:50:48.299Z,90.55
2019-05-22T20:53:22.658Z,90.60
2019-05-22T20:55:56.324Z,90.60
2019-05-22T20:58:31.023Z,91.18
2019-05-22T21:01:04.026Z,91.18
2019-05-22T21:03:37.308Z,91.09
2019-05-22T21:06:16.327Z,92.05
2019-05-22T21:08:50.736Z,91.71
2019-05-22T21:11:27.838Z,91.71
2019-05-22T21:14:00.622Z,92.25
2019-05-22T21:16:34.637Z,93.17
2019-05-22T21:19:09.832Z,93.08
2019-05-22T21:21:42.816Z,93.64
2019-05-22T21:24:15.271Z,94.16
2019-05-22T21:26:51.445Z,93.88
2019-05-22T21:29:24.659Z,93.78
2019-05-22T21:31:57.396Z,94.63
2019-05-22T21:34:30.309Z,95.05
2019-05-22T21:37:03.311Z,95.18
2019-05-22T21:41:05.459Z,95.34
2019-05-22T21:43:38.350Z,96.17
2019-05-22T21:46:11.387Z,96.17
2019-05-22T21:48:45.369Z,96.40
2019-05-22T21:51:17.802Z,95.95
2019-05-22T21:53:54.687Z,95.95
2019-05-22T21:56:27.773Z,96.31
2019-05-22T21:59:00.318Z,96.72
2019-05-22T22:01:35.658Z,97.68
2019-05-22T22:04:10.900Z,97.68
2019-05-22T22:06:45.015Z,97.67
2019-05-22T22:09:18.989Z,97.18
2019-05-22T22:11:51.580Z,96.88
2019-05-22T22:14:27.317Z,97.00
2019-05-22T22:17:03.088Z,97.94
2019-05-22T22:19:35.843Z,97.94
2019-05-22T22:22:17.743Z,97.97
2019-05-22T22:24:53.400Z,98.22
2019-05-22T22:27:26.696Z,98.55
2019-05-22T22:30:00.625Z,98.92
2019-05-22T22:32:35.464Z,99.00
2019-05-22T22:35:21.843Z,99.42
2019-05-22T22:37:55.423Z,99.85
2019-05-22T22:40:30.374Z,100.00
2019-05-22T22:43:06.391Z,100.00
2019-05-22T22:45:44.446Z,100.00
2019-05-22T22:48:32.360Z,100.00
2019-05-22T22:51:10.276Z,100.00
2019-05-22T22:53:46.048Z,100.00
2019-05-22T22:56:19.878Z,100.00
2019-05-22T22:58:53.318Z,100.00
2019-05-22T23:01:34.317Z,100.00
2019-05-22T23:04:10.879Z,100.00
2019-05-22T23:06:44.219Z,100.00
2019-05-22T23:09:18.666Z,100.00
2019-05-22T23:11:53.336Z,100.00
2019-05-22T23:14:27.975Z,100.00
2019-05-22T23:17:01.289Z,100.00
2019-05-22T23:19:35.648Z,100.00
2019-05-22T23:22:06.281Z,100.00
2019-05-22T23:24:40.777Z,100.00
2019-05-22T23:27:14.274Z,100.00
2019-05-22T23:29:47.398Z,100.00
2019-05-22T23:32:21.792Z,100.00
2019-05-22T23:34:55.436Z,100.00
2019-05-22T23:37:30.306Z,100.00
2019-05-22T23:40:03.290Z,100.00
2019-05-22T23:42:42.007Z,100.00
2019-05-22T23:45:22.398Z,100.00
2019-05-22T23:48:08.384Z,100.00
2019-05-22T23:50:42.305Z,100.00
2019-05-22T23:53:16.630Z,100.00
2019-05-22T23:55:50.425Z,100.00
2019-05-22T23:58:25.761Z,100.00
